Bei Facebook empfehlenBei Twitter postenGoogle plusPinterest

Das Wetter im Erzgebirge am 29.01.2016

Wetter und Klima am 29.01.2016 Holzhau im Erzgebirge (630m ü.NN)
Letzte gemessene Temperatur und Uhrzeit der Messung23:45:00 Uhr3.80 °C
Temperatur (Maximum / Höchstwert) und Uhrzeit der Messung15:00:00 Uhr8.30 °C
Temperatur (Minimum / Tiefstwert) und Uhrzeit der Messung08:00:00-3.70 °C
Errechneter Absolutwert der Temperaturschwankungen zwischen Tmin und Tmax des Tages12.00 K
Errechnete Tagesmitteltemperatur2.11667 °C
Gesamt - Niederschlag des Tages (in flüssiger Form)0.00 Liter / m²
Luftdruck (Maximum / Höchstwert) und Zeitpunkt der Messung00:00:00 Uhr1021.00 hPa
Luftdruck (Minimum / Tiefstwert) und Zeitpunkt der Messung23:45:00 Uhr1018.40 hPa
Errechneter Absolutwert der Luftdruckschwankungen des Tages2.60 hPa
Höchste gemessene Windgeschwindigkeit und Uhrzeit der Messung15:00:00 Uhr18.00 km/h
Errechnete Windhäufigkeit in Relation zu den Messwerten des Tages20.83333 %
Niedrigste Windkühle (Windchill) und Zeitpunkt der Messung08:00:00 Uhr-3.70 °C
Taupunkt (Maximum / Höchstwert) und Uhrzeit der Messung11:15:00 Uhr3.50 °C
Taupunkt (Minimum / Tiefstwert) und Uhrzeit der Messung08:00:00-4.80 °C
Anzahl der automatisch eingelesenen Messwerte 96

Detaillierte Wetter- und Klima- Messwerte für den 29.01.2016 in Holzhau im Erzgebirge (630m ü.NN)
ZeitTemperaturLuftdruckRel. LuftfeuchteWindWindrichtungWindchillTaupunktNiederschlag l/m²
23:45:003.80 °C1018.40 hPa77.00 %0.10 °C 
23:30:003.90 °C1018.50 hPa76.00 %0.10 °C 
23:15:004.10 °C1018.60 hPa76.00 %0.30 °C 
23:00:004.10 °C1018.70 hPa76.00 %0.30 °C 
22:45:004.10 °C1018.70 hPa76.00 %0.30 °C 
22:30:004.10 °C1018.80 hPa75.00 %9.72 km/hWSW1.60 °C0.10 °C 
22:15:004.30 °C1018.70 hPa75.00 %0.30 °C 
22:00:004.40 °C1018.80 hPa75.00 %0.40 °C 
21:45:004.50 °C1018.80 hPa74.00 %0.30 °C 
21:30:004.60 °C1019.00 hPa74.00 %0.40 °C 
21:15:004.50 °C1018.90 hPa74.00 %5.04 km/hSW3.50 °C0.30 °C 
21:00:004.50 °C1018.70 hPa74.00 %0.30 °C 
20:45:004.60 °C1018.80 hPa73.00 %3.24 km/hSSW4.60 °C0.20 °C 
20:30:004.50 °C1018.80 hPa73.00 %0.10 °C 
20:15:004.50 °C1018.80 hPa72.00 %-0.10 °C 
20:00:004.80 °C1018.60 hPa72.00 %0.20 °C 
19:45:004.90 °C1018.60 hPa71.00 %0.10 °C 
19:30:005.10 °C1018.50 hPa71.00 %2.16 km/hSW5.10 °C0.30 °C 
19:15:004.90 °C1018.40 hPa70.00 %9.36 km/hSW2.70 °C-0.10 °C 
19:00:004.90 °C1018.50 hPa70.00 %-0.10 °C 
18:45:004.60 °C1018.50 hPa69.00 %-0.60 °C 
18:30:004.80 °C1018.70 hPa69.00 %-0.40 °C 
18:15:004.50 °C1018.60 hPa68.00 %9.00 km/hNW2.30 °C-0.90 °C 
18:00:004.60 °C1018.70 hPa67.00 %-1.00 °C 
17:45:004.90 °C1018.80 hPa65.00 %-1.10 °C 
17:30:005.20 °C1018.90 hPa64.00 %-1.00 °C 
17:15:005.40 °C1018.70 hPa63.00 %-1.10 °C 
17:00:005.90 °C1018.50 hPa62.00 %-0.80 °C 
16:45:006.10 °C1018.60 hPa60.00 %-1.10 °C 
16:30:006.50 °C1018.40 hPa59.00 %-0.90 °C 
16:15:006.80 °C1018.50 hPa59.00 %-0.60 °C 
16:00:007.10 °C1018.60 hPa58.00 %-0.60 °C 
15:45:007.40 °C1019.00 hPa57.00 %3.96 km/hWSW7.40 °C-0.50 °C 
15:30:007.60 °C1019.30 hPa57.00 %3.24 km/hWNW7.60 °C-0.40 °C 
15:15:008.20 °C1019.30 hPa56.00 %0.00 °C 
15:00:008.30 °C1019.20 hPa58.00 %18.00 km/hSW5.40 °C0.50 °C 
14:45:007.60 °C1019.00 hPa57.00 %10.44 km/hW5.70 °C-0.40 °C 
14:30:007.10 °C1019.10 hPa58.00 %3.24 km/hNW7.10 °C-0.60 °C 
14:15:007.40 °C1019.30 hPa57.00 %2.52 km/hW7.40 °C-0.50 °C 
14:00:007.70 °C1019.30 hPa56.00 %6.48 km/hSSW6.70 °C-0.50 °C 
13:45:007.80 °C1019.60 hPa58.00 %4.68 km/hW7.80 °C0.10 °C 
13:30:007.50 °C1019.60 hPa58.00 %7.20 km/hWSW6.30 °C-0.20 °C 
13:15:007.90 °C1019.40 hPa60.00 %7.56 km/hWNW6.60 °C0.60 °C 
13:00:007.90 °C1019.50 hPa61.00 %5.04 km/hWSW7.40 °C0.90 °C 
12:45:007.80 °C1019.40 hPa62.00 %4.68 km/hW7.80 °C1.00 °C 
12:30:007.30 °C1019.60 hPa66.00 %1.40 °C 
12:15:006.70 °C1019.60 hPa69.00 %1.40 °C 
12:00:006.80 °C1019.70 hPa74.00 %6.12 km/hWNW5.80 °C2.50 °C 
11:45:006.10 °C1019.80 hPa78.00 %2.60 °C 
11:30:005.80 °C1020.10 hPa83.00 %3.10 °C 
11:15:005.30 °C1020.20 hPa88.00 %3.50 °C 
11:00:004.60 °C1020.10 hPa91.00 %3.30 °C 
10:45:003.70 °C1020.10 hPa93.00 %2.70 °C 
10:30:002.80 °C1020.30 hPa94.00 %4.68 km/hSSW2.80 °C1.90 °C 
10:15:001.90 °C1020.30 hPa94.00 %1.00 °C 
10:00:001.00 °C1020.20 hPa94.00 %0.10 °C 
09:45:000.10 °C1020.30 hPa94.00 %-0.70 °C 
09:30:00-0.70 °C1020.40 hPa94.00 %-1.60 °C 
09:15:00-1.30 °C1020.30 hPa94.00 %-2.20 °C 
09:00:00-1.70 °C1020.60 hPa94.00 %-2.60 °C 
08:45:00-2.10 °C1020.30 hPa94.00 %-3.00 °C 
08:30:00-2.70 °C1020.40 hPa94.00 %-3.60 °C 
08:15:00-3.20 °C1020.40 hPa93.00 %-4.30 °C 
08:00:00-3.70 °C1020.50 hPa93.00 %-4.80 °C 
07:45:00-3.60 °C1020.40 hPa93.00 %-4.70 °C 
07:30:00-3.70 °C1020.40 hPa93.00 %-4.80 °C 
07:15:00-3.60 °C1020.60 hPa93.00 %-4.70 °C 
07:00:00-3.60 °C1020.40 hPa93.00 %-4.70 °C 
06:45:00-3.40 °C1020.50 hPa93.00 %-4.50 °C 
06:30:00-3.30 °C1020.40 hPa93.00 %-4.40 °C 
06:15:00-3.20 °C1020.40 hPa93.00 %-4.30 °C 
06:00:00-3.10 °C1020.20 hPa93.00 %-4.20 °C 
05:45:00-2.70 °C1020.10 hPa93.00 %-3.80 °C 
05:30:00-2.70 °C1020.00 hPa93.00 %-3.80 °C 
05:15:00-2.70 °C1020.10 hPa93.00 %-3.80 °C 
05:00:00-2.80 °C1020.00 hPa93.00 %-3.90 °C 
04:45:00-3.10 °C1020.20 hPa93.00 %-4.20 °C 
04:30:00-3.10 °C1019.90 hPa93.00 %-4.20 °C 
04:15:00-2.90 °C1020.10 hPa93.00 %-4.00 °C 
04:00:00-2.70 °C1020.20 hPa93.00 %-3.80 °C 
03:45:00-2.70 °C1020.00 hPa93.00 %-3.80 °C 
03:30:00-2.80 °C1020.40 hPa93.00 %-3.90 °C 
03:15:00-2.70 °C1020.20 hPa93.00 %-3.80 °C 
03:00:00-2.50 °C1020.40 hPa93.00 %-3.60 °C 
02:45:00-2.40 °C1020.30 hPa93.00 %-3.50 °C 
02:30:00-2.20 °C1020.30 hPa93.00 %-3.30 °C 
02:15:00-2.10 °C1020.20 hPa92.00 %-3.40 °C 
02:00:00-2.10 °C1020.20 hPa92.00 %-3.40 °C 
01:45:00-1.90 °C1020.30 hPa93.00 %-3.00 °C 
01:30:00-2.20 °C1020.20 hPa92.00 %-3.50 °C 
01:15:00-2.40 °C1020.60 hPa92.00 %-3.70 °C 
01:00:00-2.50 °C1020.60 hPa92.00 %-3.80 °C 
00:45:00-2.60 °C1020.60 hPa92.00 %-3.90 °C 
00:30:00-2.70 °C1020.70 hPa92.00 %-3.90 °C 
00:15:00-2.60 °C1020.70 hPa92.00 %-3.90 °C 
00:00:00-2.60 °C1021.00 hPa92.00 %-3.90 °C 

Permanenter Link zu dieser Seite: Wetter im Erzgebirge am 29.01.2016
Performance-Info: Die Erstellung der Seite / Statistik(en) / Tabelle(n) erforderte 5 Datenbankserver-Abfrage(n) und dauerte 102 Millisekunden. (Dieser Messwert ist von der Gesamt-Auslastung des Servers abhängig.)
Erzgebirge - Wetter | Erzgebirge - Wetter (Mobilgeräte) | Komplette Klimadatenbank